Time;durP1;ratioP1;P1;durP2;ratioP2;P2;SDS_P1;SDS_P2;PMS_P1;PMS_P2;Temp;Humidity;BMP_temperature;BMP_pressure;BME280_temperature;BME280_humidity;BME280_pressure;Samples;Min_cycle;Max_cycle;Signal;HPM_P1;HPM_P2
2021/10/16 00:00:33;;;;;;;16.47;7.00;;;;;;;5.42;87.62;102279.34;5118063;28;20074;-35
2021/10/16 00:02:58;;;;;;;14.10;6.80;;;;;;;5.39;85.25;102281.50;5117362;28;20482;-35
2021/10/16 00:05:24;;;;;;;13.87;6.97;;;;;;;5.25;87.04;102277.59;5117552;28;20051;-35
2021/10/16 00:07:49;;;;;;;13.47;7.07;;;;;;;5.25;84.82;102288.31;5117952;28;20027;-35
2021/10/16 00:10:15;;;;;;;13.67;7.00;;;;;;;5.21;87.20;102286.97;5117770;28;20098;-35
2021/10/16 00:12:40;;;;;;;13.33;6.47;;;;;;;5.17;88.14;102277.53;5118023;28;20448;-35
2021/10/16 00:15:06;;;;;;;17.43;7.07;;;;;;;5.26;88.47;102292.69;5117783;28;20043;-35
2021/10/16 00:17:32;;;;;;;17.33;7.47;;;;;;;5.24;87.60;102291.19;5117420;28;20273;-35
2021/10/16 00:19:57;;;;;;;15.03;7.40;;;;;;;5.16;87.20;102292.81;5117039;28;20102;-35
2021/10/16 00:22:24;;;;;;;15.73;6.27;;;;;;;5.20;87.02;102287.97;5117947;28;20035;-35
2021/10/16 00:24:49;;;;;;;14.52;6.88;;;;;;;5.11;88.02;102278.19;5117363;28;20030;-35
2021/10/16 00:27:16;;;;;;;11.47;7.27;;;;;;;5.04;88.01;102266.44;5117130;28;20027;-35
2021/10/16 00:29:41;;;;;;;;;;;;;;;5.34;87.04;102294.56;5117997;28;20367;-35
2021/10/16 00:32:07;;;;;;;12.38;6.93;;;;;;;5.12;87.36;102290.59;5116812;28;20000;-35
2021/10/16 00:34:32;;;;;;;15.67;8.13;;;;;;;5.01;86.64;102289.03;5116703;28;20497;-35
2021/10/16 00:36:57;;;;;;;16.50;7.50;;;;;;;5.03;88.00;102287.06;5116529;28;20432;-35
2021/10/16 00:39:22;;;;;;;14.07;7.10;;;;;;;5.00;87.87;102281.16;5117111;28;20022;-35
2021/10/16 00:41:48;;;;;;;13.73;7.20;;;;;;;4.88;88.13;102278.75;5116643;28;20595;-35
2021/10/16 00:44:17;;;;;;;15.82;6.30;;;;;;;4.72;88.78;102240.28;5117000;28;20459;-35
2021/10/16 00:46:44;;;;;;;13.35;6.18;;;;;;;4.94;89.57;102273.75;5117056;28;20035;-35
2021/10/16 00:49:10;;;;;;;9.98;5.60;;;;;;;4.94;88.80;102279.13;5116646;28;20031;-35
2021/10/16 00:51:36;;;;;;;12.05;5.72;;;;;;;4.90;88.07;102274.06;5116712;28;20025;-35
2021/10/16 00:54:02;;;;;;;11.10;5.60;;;;;;;4.89;88.17;102272.41;5116508;28;20034;-35
2021/10/16 00:56:28;;;;;;;10.25;4.85;;;;;;;4.80;88.27;102249.22;5116298;28;20026;-35
2021/10/16 00:58:54;;;;;;;10.75;5.38;;;;;;;4.87;87.90;102276.22;5115475;28;20414;-35
2021/10/16 01:01:20;;;;;;;13.40;5.28;;;;;;;4.87;88.34;102266.34;5116762;28;20055;-35
2021/10/16 01:03:46;;;;;;;10.15;4.75;;;;;;;4.82;87.75;102262.47;5117089;28;20076;-35
2021/10/16 01:06:11;;;;;;;10.63;4.93;;;;;;;4.81;87.41;102258.94;5116617;28;20034;-35
2021/10/16 01:08:37;;;;;;;14.30;5.00;;;;;;;4.81;88.49;102266.97;5115969;28;20023;-35
2021/10/16 01:11:03;;;;;;;12.40;4.88;;;;;;;4.89;88.91;102267.03;5116252;28;20065;-35
2021/10/16 01:13:29;;;;;;;11.30;4.63;;;;;;;4.91;88.81;102267.72;5116337;28;20043;-35
2021/10/16 01:15:56;;;;;;;12.80;4.82;;;;;;;4.92;88.63;102263.19;5116858;28;20019;-35
2021/10/16 01:18:22;;;;;;;12.00;4.60;;;;;;;4.93;88.50;102269.38;5116105;28;20107;-35
2021/10/16 01:21:00;;;;;;;11.20;5.60;;;;;;;4.94;89.09;102269.25;5116209;28;20030;-35
2021/10/16 01:23:26;;;;;;;11.13;4.80;;;;;;;4.86;88.45;102269.19;5099552;28;20027;-35
2021/10/16 01:25:51;;;;;;;10.17;4.57;;;;;;;4.84;87.51;102268.53;5115918;28;20026;-35
2021/10/16 01:28:17;;;;;;;10.10;4.30;;;;;;;4.72;88.04;102251.00;5115679;28;20031;-35
2021/10/16 01:30:42;;;;;;;9.83;4.77;;;;;;;4.72;87.76;102257.22;5115921;28;20023;-35
2021/10/16 01:33:08;;;;;;;8.27;4.85;;;;;;;4.71;88.08;102268.09;5116285;28;20032;-35
2021/10/16 01:35:33;;;;;;;10.63;4.57;;;;;;;4.56;88.13;102254.44;5115699;28;20368;-35
2021/10/16 01:37:58;;;;;;;8.10;4.40;;;;;;;4.61;87.69;102266.34;5116447;28;20069;-35
2021/10/16 01:40:24;;;;;;;10.93;5.27;;;;;;;4.62;88.57;102261.81;5115327;28;20030;-35
2021/10/16 01:42:50;;;;;;;14.13;6.63;;;;;;;4.61;88.93;102266.34;5116189;28;20094;-35
2021/10/16 01:45:17;;;;;;;11.73;5.53;;;;;;;4.70;88.58;102269.09;5115206;28;20027;-35
2021/10/16 01:47:45;;;;;;;15.07;6.25;;;;;;;4.64;90.09;102265.22;5116202;28;20416;-35
2021/10/16 01:50:11;;;;;;;10.27;5.38;;;;;;;4.58;88.55;102257.78;5115392;28;20024;-35
2021/10/16 01:52:36;;;;;;;14.77;7.03;;;;;;;4.56;88.83;102243.72;5115726;28;20019;-35
2021/10/16 01:55:01;;;;;;;11.73;6.23;;;;;;;4.74;89.69;102265.09;5115540;28;20110;-35
2021/10/16 01:57:26;;;;;;;11.13;5.27;;;;;;;4.65;88.70;102253.50;5115277;28;20027;-35
2021/10/16 01:59:52;;;;;;;9.67;5.23;;;;;;;4.62;89.30;102251.94;5114906;28;20023;-35
2021/10/16 02:02:17;;;;;;;12.27;6.00;;;;;;;4.56;89.59;102243.72;5115764;28;20024;-35
2021/10/16 02:04:42;;;;;;;9.97;5.43;;;;;;;4.57;89.77;102240.03;5114834;28;20027;-35
2021/10/16 02:07:08;;;;;;;10.87;5.57;;;;;;;4.58;89.44;102255.94;5115258;28;20189;-35
2021/10/16 02:09:33;;;;;;;11.77;5.57;;;;;;;4.56;89.58;102259.78;5114989;28;20039;-35
2021/10/16 02:11:58;;;;;;;12.47;5.30;;;;;;;4.63;91.04;102261.66;5115086;28;20030;-35
2021/10/16 02:14:24;;;;;;;11.37;5.37;;;;;;;4.59;91.00;102246.09;5115637;28;20031;-35
2021/10/16 02:16:49;;;;;;;11.37;5.77;;;;;;;4.57;90.96;102243.53;5114891;28;20077;-35
2021/10/16 02:19:14;;;;;;;9.63;5.03;;;;;;;4.64;91.22;102238.41;5114937;28;20100;-35
2021/10/16 02:21:39;;;;;;;12.87;5.43;;;;;;;4.71;90.28;102250.16;5114676;28;20363;-35
2021/10/16 02:24:05;;;;;;;13.23;5.63;;;;;;;4.83;90.54;102248.06;5114498;28;20034;-35
2021/10/16 02:26:30;;;;;;;10.90;5.07;;;;;;;4.83;91.08;102248.91;5114945;28;20031;-35
2021/10/16 02:28:56;;;;;;;8.50;4.63;;;;;;;4.74;90.92;102239.16;5114909;28;20093;-35
2021/10/16 02:31:21;;;;;;;15.20;5.67;;;;;;;4.81;90.61;102244.69;5114622;28;20023;-35
2021/10/16 02:33:47;;;;;;;17.02;5.30;;;;;;;4.80;91.01;102249.22;5114553;28;20023;-35
2021/10/16 02:36:13;;;;;;;;;;;;;;;4.95;90.58;102248.63;5114966;28;20055;-35
2021/10/16 02:38:38;;;;;;;9.13;4.37;;;;;;;4.87;90.68;102252.94;5114524;28;19950;-35
2021/10/16 02:41:03;;;;;;;10.40;4.73;;;;;;;4.89;90.65;102256.31;5114654;28;20099;-35
2021/10/16 02:43:29;;;;;;;9.37;4.77;;;;;;;4.88;90.78;102265.38;5114672;28;20106;-35
2021/10/16 02:45:54;;;;;;;11.83;4.70;;;;;;;4.73;92.11;102231.25;5114822;28;20077;-35
2021/10/16 02:48:19;;;;;;;10.70;5.20;;;;;;;4.91;92.08;102273.06;5114690;28;20046;-35
2021/10/16 02:50:45;;;;;;;9.93;4.47;;;;;;;4.97;91.31;102270.75;5114234;28;20026;-35
2021/10/16 02:53:10;;;;;;;13.90;4.63;;;;;;;5.02;91.56;102265.75;5114534;28;20024;-35
2021/10/16 02:55:36;;;;;;;9.67;4.43;;;;;;;5.03;92.18;102243.31;5114638;28;20153;-35
2021/10/16 02:58:01;;;;;;;12.60;4.90;;;;;;;5.08;92.11;102263.28;5114745;28;20063;-35
2021/10/16 03:00:26;;;;;;;9.60;4.40;;;;;;;5.00;91.78;102249.84;5114369;28;20023;-35
2021/10/16 03:02:52;;;;;;;11.17;4.90;;;;;;;5.12;91.84;102263.78;5114497;28;20015;-35
2021/10/16 03:05:17;;;;;;;11.85;4.57;;;;;;;5.18;92.23;102263.16;5114049;28;20020;-35
2021/10/16 03:07:43;;;;;;;15.10;5.33;;;;;;;5.12;91.83;102253.06;5114410;28;20127;-35
2021/10/16 03:10:08;;;;;;;21.00;6.00;;;;;;;5.08;92.72;102255.25;5113879;28;20031;-35
2021/10/16 03:12:34;;;;;;;14.68;5.90;;;;;;;5.22;92.14;102269.91;5114882;28;20027;-35
2021/10/16 03:14:59;;;;;;;11.97;5.00;;;;;;;5.28;93.18;102258.50;5095573;28;20043;-35
2021/10/16 03:17:24;;;;;;;10.93;4.70;;;;;;;5.35;94.02;102258.69;5113874;28;20023;-35
2021/10/16 03:19:49;;;;;;;13.30;4.53;;;;;;;5.28;93.88;102247.78;5113845;28;20055;-35
2021/10/16 03:22:15;;;;;;;11.20;4.77;;;;;;;5.31;92.67;102262.69;5113855;28;20058;-35
2021/10/16 03:24:40;;;;;;;13.30;5.73;;;;;;;5.23;92.72;102262.69;5113763;28;20027;-35
2021/10/16 03:27:06;;;;;;;13.40;5.77;;;;;;;5.18;92.91;102260.47;5114036;28;20364;-35
2021/10/16 03:29:33;;;;;;;11.52;4.95;;;;;;;5.14;93.01;102245.72;5113674;28;20424;-35
2021/10/16 03:31:59;;;;;;;15.15;5.72;;;;;;;5.24;94.04;102246.41;5113772;28;20085;-35
2021/10/16 03:34:26;;;;;;;14.00;5.38;;;;;;;5.26;93.74;102255.13;5113660;28;20023;-35
2021/10/16 03:36:52;;;;;;;10.10;5.85;;;;;;;5.29;94.13;102252.13;5113258;28;20532;-35
2021/10/16 03:39:17;;;;;;;9.57;5.03;;;;;;;5.25;94.00;102239.22;5113359;28;20077;-35
2021/10/16 03:41:42;;;;;;;11.67;5.20;;;;;;;5.23;94.08;102255.47;5113779;28;20069;-35
2021/10/16 03:44:08;;;;;;;13.25;5.75;;;;;;;5.25;93.82;102253.47;5113435;28;20016;-35
2021/10/16 03:46:33;;;;;;;12.93;5.30;;;;;;;5.38;94.14;102261.91;5113560;28;20056;-35
2021/10/16 03:48:58;;;;;;;9.87;4.77;;;;;;;5.44;94.44;102257.72;5113537;28;20027;-35
2021/10/16 03:51:24;;;;;;;14.27;5.47;;;;;;;5.43;94.62;102248.84;5113736;28;20034;-35
2021/10/16 03:53:49;;;;;;;11.87;5.07;;;;;;;5.48;94.45;102252.88;5114006;28;20023;-36
2021/10/16 03:56:14;;;;;;;12.83;5.57;;;;;;;5.49;94.34;102255.38;5113193;28;20348;-35
2021/10/16 03:58:40;;;;;;;13.80;5.50;;;;;;;5.44;93.26;102252.34;5113171;28;20047;-35
2021/10/16 04:01:06;;;;;;;13.30;5.78;;;;;;;5.44;94.53;102236.25;5113134;28;20047;-35
2021/10/16 04:03:31;;;;;;;15.15;5.50;;;;;;;5.56;93.70;102245.69;5113554;28;20028;-35
2021/10/16 04:05:57;;;;;;;11.93;5.93;;;;;;;5.63;94.25;102245.88;5113727;28;20062;-35
2021/10/16 04:08:22;;;;;;;17.13;5.78;;;;;;;5.72;95.09;102252.94;5113376;28;20016;-35
2021/10/16 04:10:48;;;;;;;9.47;5.30;;;;;;;5.76;94.52;102251.63;5113399;28;20019;-35
2021/10/16 04:13:13;;;;;;;11.57;5.40;;;;;;;5.71;95.07;102240.53;5113597;28;20012;-35
2021/10/16 04:15:39;;;;;;;10.47;5.53;;;;;;;5.79;94.99;102255.78;5113566;28;20051;-35
2021/10/16 04:18:05;;;;;;;10.53;5.70;;;;;;;5.76;95.09;102250.75;5113114;28;20045;-35
2021/10/16 04:20:31;;;;;;;11.00;5.55;;;;;;;5.83;94.73;102260.66;5113933;28;20308;-35
2021/10/16 04:22:57;;;;;;;14.88;6.55;;;;;;;5.85;94.34;102261.34;5113605;28;20041;-35
2021/10/16 04:25:22;;;;;;;10.80;5.18;;;;;;;5.91;94.59;102259.84;5113245;28;20024;-35
2021/10/16 04:27:48;;;;;;;10.37;5.13;;;;;;;5.77;94.50;102231.81;5113558;28;20106;-35
2021/10/16 04:30:13;;;;;;;12.93;6.07;;;;;;;5.88;93.94;102258.34;5113090;28;20134;-35
2021/10/16 04:32:38;;;;;;;10.97;5.07;;;;;;;5.88;94.54;102252.97;5115726;28;20035;-35
2021/10/16 04:35:05;;;;;;;14.17;5.27;;;;;;;5.94;94.50;102249.63;5117677;28;20058;-35
2021/10/16 04:37:31;;;;;;;10.45;5.07;;;;;;;5.95;93.99;102258.53;5116741;28;20068;-35
2021/10/16 04:39:57;;;;;;;13.30;5.25;;;;;;;6.00;94.82;102253.50;5117094;28;20106;-35
2021/10/16 04:42:22;;;;;;;14.77;5.67;;;;;;;6.02;94.07;102256.03;5117364;28;20022;-36
2021/10/16 04:44:48;;;;;;;15.35;5.63;;;;;;;5.90;94.30;102231.31;5116759;28;20314;-35
2021/10/16 04:47:13;;;;;;;10.95;5.15;;;;;;;6.09;93.49;102255.19;5117004;28;20055;-35
2021/10/16 04:49:39;;;;;;;14.57;5.63;;;;;;;6.07;93.27;102261.75;5116739;28;20483;-35
2021/10/16 04:52:06;;;;;;;9.50;4.80;;;;;;;6.05;93.44;102263.75;5116715;28;20479;-35
2021/10/16 04:54:32;;;;;;;16.50;5.03;;;;;;;6.00;93.71;102248.13;5116137;28;20455;-35
2021/10/16 04:56:57;;;;;;;10.37;5.07;;;;;;;6.00;94.10;102247.28;5116568;28;20068;-35
2021/10/16 04:59:24;;;;;;;13.77;5.10;;;;;;;6.08;93.58;102264.25;5116488;28;20344;-36
2021/10/16 05:01:50;;;;;;;16.52;5.45;;;;;;;6.07;93.55;102261.75;5117232;28;20032;-35
2021/10/16 05:04:15;;;;;;;16.35;6.50;;;;;;;6.08;93.50;102261.56;5116406;28;20042;-35
2021/10/16 05:06:40;;;;;;;13.20;5.03;;;;;;;6.08;92.88;102258.03;5116701;28;20027;-35
2021/10/16 05:09:05;;;;;;;9.70;4.33;;;;;;;6.08;93.68;102260.72;5116991;28;20024;-35
2021/10/16 05:11:31;;;;;;;11.73;4.77;;;;;;;6.04;94.26;102248.66;5116415;28;20137;-35
2021/10/16 05:13:56;;;;;;;15.30;5.30;;;;;;;6.12;94.11;102257.56;5116389;28;20055;-35
2021/10/16 05:16:21;;;;;;;10.97;4.60;;;;;;;6.14;94.68;102260.06;5116706;28;20061;-35
2021/10/16 05:18:47;;;;;;;7.83;4.67;;;;;;;6.18;94.91;102264.09;5116217;28;20043;-35
2021/10/16 05:21:13;;;;;;;10.20;4.47;;;;;;;6.20;94.98;102254.03;5116460;28;20042;-35
2021/10/16 05:23:38;;;;;;;11.18;4.85;;;;;;;6.20;94.96;102254.03;5116017;28;20027;-35
2021/10/16 05:26:04;;;;;;;12.68;4.88;;;;;;;6.23;94.52;102252.84;5116495;28;20020;-35
2021/10/16 05:28:30;;;;;;;7.90;4.43;;;;;;;6.12;94.38;102243.28;5115717;28;20024;-35
2021/10/16 05:30:55;;;;;;;17.55;4.70;;;;;;;6.15;93.68;102251.84;5115920;28;20042;-35
2021/10/16 05:33:20;;;;;;;14.20;4.90;;;;;;;6.21;93.81;102258.41;5116208;28;20024;-35
2021/10/16 05:35:46;;;;;;;11.27;5.30;;;;;;;6.23;94.22;102252.84;5115516;28;20027;-35
2021/10/16 05:38:12;;;;;;;14.33;4.47;;;;;;;6.22;94.32;102257.38;5116360;28;20023;-35
2021/10/16 05:40:38;;;;;;;13.35;4.38;;;;;;;6.24;94.43;102254.53;5115414;28;20020;-35
2021/10/16 05:43:04;;;;;;;11.02;4.60;;;;;;;6.24;94.50;102260.72;5115523;28;20050;-35
2021/10/16 05:45:29;;;;;;;15.27;5.03;;;;;;;6.29;94.66;102260.22;5115862;28;20055;-35
2021/10/16 05:47:54;;;;;;;11.47;4.73;;;;;;;6.26;94.78;102266.78;5115973;28;20035;-35
2021/10/16 05:50:20;;;;;;;10.77;5.07;;;;;;;6.31;95.17;102260.91;5115303;28;20023;-35
2021/10/16 05:52:45;;;;;;;12.50;5.20;;;;;;;6.23;94.56;102253.69;5115493;28;20024;-35
2021/10/16 05:55:10;;;;;;;12.77;5.30;;;;;;;6.28;94.57;102264.75;5115153;28;20023;-35
2021/10/16 05:57:36;;;;;;;10.00;5.30;;;;;;;6.31;94.33;102269.81;5116390;28;20020;-35
2021/10/16 06:00:04;;;;;;;12.27;5.00;;;;;;;6.32;94.70;102268.81;5115384;28;20363;-35
2021/10/16 06:02:29;;;;;;;11.68;5.03;;;;;;;6.33;95.05;102258.88;5115878;28;20027;-35
2021/10/16 06:04:54;;;;;;;14.47;5.20;;;;;;;6.33;94.65;102248.97;5114918;28;20027;-35
2021/10/16 06:07:20;;;;;;;9.03;4.53;;;;;;;6.35;95.30;102244.28;5115790;28;20019;-35
2021/10/16 06:09:45;;;;;;;10.60;4.83;;;;;;;6.44;94.98;102264.78;5114964;28;20102;-35
2021/10/16 06:12:10;;;;;;;10.50;5.23;;;;;;;6.39;94.70;102266.28;5115674;28;20101;-35
2021/10/16 06:14:36;;;;;;;13.27;5.00;;;;;;;6.47;95.69;102262.75;5115938;28;20096;-35
2021/10/16 06:17:02;;;;;;;15.53;4.63;;;;;;;6.40;94.37;102263.44;5114972;28;20027;-35
2021/10/16 06:19:28;;;;;;;14.00;5.40;;;;;;;6.45;94.63;102266.44;5114615;28;20028;-35
2021/10/16 06:21:53;;;;;;;10.53;4.23;;;;;;;6.45;94.86;102260.25;5115001;28;20083;-35
2021/10/16 06:24:18;;;;;;;11.67;4.80;;;;;;;6.45;95.71;102263.75;5115393;28;20031;-35
2021/10/16 06:26:43;;;;;;;14.73;5.07;;;;;;;6.45;95.19;102265.63;5114903;28;20423;-35
2021/10/16 06:29:09;;;;;;;6.63;3.77;;;;;;;6.52;95.01;102265.78;5114494;28;20463;-35
2021/10/16 06:31:36;;;;;;;11.13;4.37;;;;;;;6.50;95.53;102270.47;5115544;28;20106;-35
2021/10/16 06:34:01;;;;;;;12.10;5.00;;;;;;;6.51;95.41;102273.00;5096536;28;20032;-35
2021/10/16 06:36:27;;;;;;;12.35;4.75;;;;;;;6.56;94.59;102277.88;5114659;28;20076;-35
2021/10/16 06:38:52;;;;;;;10.97;4.60;;;;;;;6.59;95.70;102280.22;5114286;28;20095;-35
2021/10/16 06:41:17;;;;;;;9.60;3.83;;;;;;;6.67;96.15;102272.13;5114532;28;20103;-35
2021/10/16 06:43:43;;;;;;;9.40;4.33;;;;;;;6.70;96.06;102272.63;5114914;28;20055;-35
2021/10/16 06:46:09;;;;;;;14.10;4.75;;;;;;;6.63;94.98;102273.47;5114749;28;20356;-35
2021/10/16 06:48:34;;;;;;;15.33;6.07;;;;;;;6.60;94.00;102279.22;5114450;28;20019;-35
2021/10/16 06:50:59;;;;;;;15.07;5.20;;;;;;;6.51;94.31;102266.78;5114895;28;20015;-35
2021/10/16 06:53:25;;;;;;;13.83;4.50;;;;;;;6.66;94.63;102273.97;5114770;28;20015;-35
2021/10/16 06:55:50;;;;;;;18.37;5.37;;;;;;;6.64;94.40;102273.31;5114243;28;20032;-35
2021/10/16 06:58:15;;;;;;;17.30;5.00;;;;;;;6.62;94.81;102271.81;5114534;28;20011;-35
2021/10/16 07:00:40;;;;;;;21.70;4.97;;;;;;;6.72;93.83;102288.59;5114764;28;20089;-35
2021/10/16 07:03:08;;;;;;;12.97;4.37;;;;;;;6.80;93.95;102282.38;5114420;28;20515;-35
2021/10/16 07:05:33;;;;;;;15.43;4.60;;;;;;;6.82;93.80;102281.16;5114267;28;20040;-35
2021/10/16 07:07:59;;;;;;;15.35;4.32;;;;;;;6.83;93.67;102277.50;5114879;28;20482;-35
2021/10/16 07:10:24;;;;;;;17.17;5.63;;;;;;;6.91;93.75;102285.53;5113782;28;20027;-35
2021/10/16 07:12:50;;;;;;;16.27;5.90;;;;;;;6.89;93.29;102292.94;5114811;28;20018;-35
2021/10/16 07:15:15;;;;;;;14.63;5.37;;;;;;;7.00;93.56;102299.78;5114853;28;20048;-35
2021/10/16 07:17:40;;;;;;;11.20;4.10;;;;;;;7.13;94.63;102293.88;5113635;28;20030;-35
2021/10/16 07:20:06;;;;;;;12.57;4.37;;;;;;;7.14;94.06;102292.88;5113983;28;20030;-35
2021/10/16 07:22:32;;;;;;;10.18;3.75;;;;;;;7.19;93.70;102299.41;5114198;28;20015;-35
2021/10/16 07:24:57;;;;;;;10.52;4.00;;;;;;;7.16;94.37;102282.75;5113847;28;20020;-35
2021/10/16 07:27:22;;;;;;;15.40;4.87;;;;;;;7.21;92.21;102302.75;5114107;28;20360;-35
2021/10/16 07:29:48;;;;;;;17.07;5.10;;;;;;;7.23;92.60;102306.13;5095372;28;20436;-35
2021/10/16 07:32:15;;;;;;;11.00;4.70;;;;;;;7.35;93.07;102298.50;5114340;28;20443;-35
2021/10/16 07:34:40;;;;;;;20.27;4.93;;;;;;;7.29;93.32;102288.44;5114519;28;20030;-35
2021/10/16 07:37:06;;;;;;;17.40;5.30;;;;;;;7.36;92.91;102294.78;5113980;28;20363;-35
2021/10/16 07:39:32;;;;;;;15.13;5.20;;;;;;;7.37;92.50;102295.63;5113708;28;20421;-35
2021/10/16 07:41:58;;;;;;;14.23;4.95;;;;;;;7.44;92.90;102296.63;5113809;28;20119;-35
2021/10/16 07:44:24;;;;;;;13.32;5.75;;;;;;;7.44;94.31;102296.63;5113371;28;20434;-35
2021/10/16 07:46:49;;;;;;;11.57;5.23;;;;;;;7.43;93.63;102300.34;5113424;28;20051;-35
2021/10/16 07:49:14;;;;;;;15.83;6.00;;;;;;;7.47;94.52;102310.56;5113899;28;20059;-35
2021/10/16 07:51:40;;;;;;;13.37;5.43;;;;;;;7.38;94.42;102279.31;5113946;28;20393;-35
2021/10/16 07:54:05;;;;;;;16.20;6.27;;;;;;;7.52;94.56;102293.06;5113716;28;20451;-35
2021/10/16 07:56:30;;;;;;;14.97;5.83;;;;;;;7.66;94.16;102306.63;5114240;28;20027;-35
2021/10/16 07:58:56;;;;;;;25.77;9.60;;;;;;;7.74;94.11;102311.13;5113862;28;20027;-35
2021/10/16 08:01:21;;;;;;;19.83;9.60;;;;;;;7.77;92.67;102301.84;5113888;28;20348;-35
2021/10/16 08:03:46;;;;;;;24.07;8.50;;;;;;;7.80;92.47;102302.31;5113178;28;20047;-35
2021/10/16 08:06:12;;;;;;;18.13;6.33;;;;;;;7.83;91.95;102301.97;5112991;28;20049;-35
2021/10/16 08:08:37;;;;;;;14.37;5.47;;;;;;;7.85;92.50;102289.16;5117309;28;20027;-35
2021/10/16 08:11:03;;;;;;;13.32;5.07;;;;;;;7.93;92.22;102309.84;5117610;28;20030;-35
2021/10/16 08:13:30;;;;;;;11.55;4.60;;;;;;;7.93;91.59;102302.59;5117196;28;20019;-35
2021/10/16 08:15:56;;;;;;;11.05;4.72;;;;;;;7.99;92.14;102296.47;5118120;28;20044;-35
2021/10/16 08:18:21;;;;;;;17.15;5.28;;;;;;;7.91;91.74;102288.47;5117543;28;20111;-35
2021/10/16 08:20:47;;;;;;;16.80;4.88;;;;;;;8.06;91.72;102303.88;5117250;28;20471;-35
2021/10/16 08:23:12;;;;;;;14.77;3.90;;;;;;;8.13;90.68;102313.72;5118013;28;20027;-35
2021/10/16 08:25:38;;;;;;;12.47;5.47;;;;;;;8.16;90.85;102309.84;5117412;28;20053;-35
2021/10/16 08:28:07;;;;;;;18.25;6.00;;;;;;;8.17;89.95;102317.75;5117369;28;20022;-35
2021/10/16 08:30:33;;;;;;;14.57;6.05;;;;;;;8.16;90.35;102312.56;5117185;28;20106;-35
2021/10/16 08:32:59;;;;;;;14.38;5.63;;;;;;;8.22;90.85;102314.53;5117334;28;20454;-35
2021/10/16 08:35:24;;;;;;;16.47;6.07;;;;;;;8.32;91.51;102320.50;5117508;28;20094;-35
2021/10/16 08:37:49;;;;;;;14.37;6.40;;;;;;;8.25;90.45;102295.31;5117337;28;20397;-35
2021/10/16 08:40:15;;;;;;;14.60;4.90;;;;;;;8.36;89.67;102323.69;5117069;28;20452;-35
2021/10/16 08:42:40;;;;;;;17.27;5.03;;;;;;;8.39;90.15;102316.09;5117096;28;20026;-35
2021/10/16 08:45:06;;;;;;;13.90;5.70;;;;;;;8.49;90.91;102314.00;5117146;28;20499;-35
2021/10/16 08:47:38;;;;;;;20.05;6.70;;;;;;;8.48;88.98;102312.31;5117257;28;20110;-35
2021/10/16 08:50:07;;;;;;;15.23;5.82;;;;;;;8.48;88.24;102323.09;5116941;28;20038;-35
2021/10/16 08:52:33;;;;;;;22.77;6.25;;;;;;;8.57;88.98;102314.94;5117080;28;20024;-35
2021/10/16 08:54:59;;;;;;;14.80;5.72;;;;;;;8.62;87.92;102318.78;5116523;28;20106;-36
2021/10/16 08:57:32;;;;;;;14.38;5.80;;;;;;;8.69;87.93;102318.91;5116690;28;20095;-36
2021/10/16 08:59:57;;;;;;;16.98;5.60;;;;;;;8.69;87.17;102310.81;5116614;28;20490;-36
2021/10/16 09:02:22;;;;;;;11.82;5.13;;;;;;;8.65;86.91;102307.63;5116961;28;20051;-36
2021/10/16 09:04:48;;;;;;;16.10;5.77;;;;;;;8.73;87.41;102325.56;5116636;28;20444;-36
2021/10/16 09:07:24;;;;;;;16.70;6.57;;;;;;;8.77;87.45;102326.91;5116474;28;20052;-36
2021/10/16 09:09:51;;;;;;;16.27;6.30;;;;;;;8.77;86.39;102321.50;5116444;28;20368;-36
2021/10/16 09:12:17;;;;;;;15.93;5.85;;;;;;;8.83;87.53;102325.31;5116762;28;20401;-36
2021/10/16 09:14:47;;;;;;;15.82;5.40;;;;;;;8.88;87.61;102323.78;5116107;28;20039;-36
2021/10/16 09:17:14;;;;;;;21.50;5.50;;;;;;;8.86;86.91;102315.00;5116304;28;20026;-36
2021/10/16 09:19:40;;;;;;;15.35;5.35;;;;;;;8.98;87.71;102320.81;5115062;28;20020;-36
2021/10/16 09:22:17;;;;;;;22.40;5.07;;;;;;;9.07;86.81;102333.16;5116573;28;20019;-36
2021/10/16 09:24:45;;;;;;;16.83;5.10;;;;;;;9.13;86.42;102329.75;5116492;28;20265;-36
2021/10/16 09:27:11;;;;;;;16.85;4.97;;;;;;;9.15;86.51;102333.09;5116938;28;20030;-36
2021/10/16 09:29:41;;;;;;;13.70;5.50;;;;;;;9.21;86.25;102331.50;5116229;28;20026;-36
2021/10/16 09:32:12;;;;;;;15.02;5.32;;;;;;;9.21;85.47;102323.41;5116171;28;20106;-36
2021/10/16 09:34:40;;;;;;;14.27;5.65;;;;;;;9.23;85.39;102324.06;5116048;28;20068;-35
2021/10/16 09:37:10;;;;;;;14.43;4.55;;;;;;;9.39;86.45;102331.97;5115805;28;20375;-36
2021/10/16 09:39:39;;;;;;;13.68;5.43;;;;;;;9.35;85.50;102319.88;5115999;28;20020;-36
2021/10/16 09:42:07;;;;;;;14.07;5.28;;;;;;;9.47;85.23;102339.16;5116274;28;20023;-36
2021/10/16 09:44:35;;;;;;;19.25;5.20;;;;;;;9.52;85.24;102332.16;5115895;28;20030;-36
2021/10/16 09:47:17;;;;;;;13.90;4.75;;;;;;;9.52;84.92;102323.22;5115757;28;20023;-36
2021/10/16 09:50:15;;;;;;;18.58;5.13;;;;;;;9.67;84.99;102334.84;5116306;28;20023;-36
2021/10/16 09:52:42;;;;;;;11.13;4.30;;;;;;;9.68;85.03;102330.28;5114569;28;20039;-36
2021/10/16 09:55:10;;;;;;;16.90;5.47;;;;;;;9.52;83.94;102304.31;5115600;28;20024;-36
2021/10/16 09:57:37;;;;;;;14.40;4.78;;;;;;;9.66;84.27;102316.97;5116060;28;20033;-36
2021/10/16 10:00:04;;;;;;;14.75;5.07;;;;;;;9.78;84.07;102325.41;5115487;28;20487;-36
2021/10/16 10:02:31;;;;;;;12.73;4.82;;;;;;;9.87;84.84;102313.47;5115791;28;20015;-36
2021/10/16 10:04:57;;;;;;;18.42;4.90;;;;;;;9.99;82.56;102330.84;5115455;28;20030;-36
2021/10/16 10:07:25;;;;;;;14.32;5.45;;;;;;;10.07;82.53;102330.75;5115463;28;20317;-36
2021/10/16 10:09:52;;;;;;;17.55;5.13;;;;;;;10.13;81.45;102328.28;5115158;28;20393;-36
2021/10/16 10:12:18;;;;;;;13.63;4.85;;;;;;;10.10;81.59;102309.75;5116012;28;20016;-36
2021/10/16 10:14:45;;;;;;;;;;;;;;;10.28;82.08;102326.41;5116212;28;20043;-36
2021/10/16 10:17:12;;;;;;;;;;;;;;;10.33;82.03;102334.75;5115563;28;20336;-36
2021/10/16 10:19:40;;;;;;;15.33;4.53;;;;;;;10.35;81.38;102335.44;5114848;28;19908;-36
2021/10/16 10:22:12;;;;;;;12.95;4.63;;;;;;;10.29;80.94;102314.56;5114766;28;20096;-36
2021/10/16 10:24:40;;;;;;;15.48;5.05;;;;;;;10.42;79.45;102322.78;5114791;28;20027;-36
2021/10/16 10:27:07;;;;;;;14.85;4.95;;;;;;;10.45;79.45;102324.28;5115844;28;20089;-36
2021/10/16 10:29:41;;;;;;;17.98;4.80;;;;;;;10.52;78.36;102328.72;5114712;28;20077;-36
2021/10/16 10:32:22;;;;;;;15.77;4.85;;;;;;;10.46;79.11;102309.72;5115204;28;20020;-36
2021/10/16 10:34:54;;;;;;;16.33;5.03;;;;;;;10.48;79.44;102304.94;5115113;28;20102;-36
2021/10/16 10:37:20;;;;;;;20.73;5.57;;;;;;;10.64;78.37;102317.34;5115298;28;20027;-36
2021/10/16 10:39:50;;;;;;;14.73;5.18;;;;;;;10.78;79.09;102325.41;5114715;28;20358;-36
2021/10/16 10:42:15;;;;;;;15.30;4.78;;;;;;;10.83;78.02;102320.25;5114341;28;20020;-36
2021/10/16 10:45:01;;;;;;;18.40;5.30;;;;;;;10.86;76.56;102318.16;5114722;28;20030;-36
2021/10/16 10:47:31;;;;;;;16.45;5.18;;;;;;;10.91;75.56;102316.53;5114547;28;20020;-36
2021/10/16 10:50:01;;;;;;;18.00;4.20;;;;;;;10.94;77.55;102312.63;5114893;28;20098;-36
2021/10/16 10:52:28;;;;;;;17.35;5.00;;;;;;;10.91;75.97;102300.28;5114529;28;20023;-36
2021/10/16 10:55:04;;;;;;;10.20;4.20;;;;;;;11.04;76.35;102319.34;5114115;28;20397;-36
2021/10/16 10:57:42;;;;;;;16.03;4.43;;;;;;;11.05;76.40;102304.75;5115215;28;20035;-36
2021/10/16 11:00:10;;;;;;;18.42;4.72;;;;;;;11.14;75.04;102307.31;5114594;28;20253;-36
2021/10/16 11:02:35;;;;;;;17.52;5.00;;;;;;;11.13;73.71;102303.78;5114616;28;20024;-36
2021/10/16 11:05:03;;;;;;;14.40;4.20;;;;;;;11.30;73.50;102320.53;5114529;28;20517;-45
2021/10/16 11:07:36;;;;;;;13.80;5.00;;;;;;;11.32;73.42;102313.91;5114477;28;20028;-36
2021/10/16 11:10:02;;;;;;;13.52;4.47;;;;;;;11.38;74.34;102304.13;5114196;28;20028;-36
2021/10/16 11:12:29;;;;;;;11.75;4.38;;;;;;;11.44;75.23;102311.44;5114176;28;20286;-36
2021/10/16 11:14:58;;;;;;;19.85;5.00;;;;;;;11.33;73.06;102293.06;5114317;28;20062;-36
2021/10/16 11:17:33;;;;;;;13.00;3.85;;;;;;;11.42;74.19;102286.44;5114296;28;20046;-36
2021/10/16 11:19:58;;;;;;;12.70;4.35;;;;;;;11.52;73.57;102297.75;5114155;28;20077;-36
2021/10/16 11:22:44;;;;;;;15.33;4.40;;;;;;;11.59;74.90;102295.88;5114793;28;20428;-36